createdAt,value
2023-04-25T00:00:24.157Z,7.27
2023-04-25T00:01:24.090Z,7.29
2023-04-25T00:02:24.177Z,7.31
2023-04-25T00:03:24.225Z,7.32
2023-04-25T00:04:24.474Z,7.31
2023-04-25T00:05:24.366Z,7.31
2023-04-25T00:06:24.068Z,7.31
2023-04-25T00:07:24.046Z,7.34
2023-04-25T00:08:24.007Z,7.31
2023-04-25T00:09:24.103Z,7.32
2023-04-25T00:10:24.078Z,7.32
2023-04-25T00:11:24.009Z,7.32
2023-04-25T00:12:24.155Z,7.32
2023-04-25T00:13:24.024Z,7.35
2023-04-25T00:14:23.991Z,7.34
2023-04-25T00:15:23.995Z,7.35
2023-04-25T00:16:23.961Z,7.35
2023-04-25T00:17:23.912Z,7.35
2023-04-25T00:18:23.903Z,7.34
2023-04-25T00:19:23.886Z,7.31
2023-04-25T00:20:23.932Z,7.29
2023-04-25T00:21:23.898Z,7.27
2023-04-25T00:22:23.934Z,7.29
2023-04-25T00:23:23.832Z,7.26
2023-04-25T00:24:23.833Z,7.29
2023-04-25T00:25:23.841Z,7.26
2023-04-25T00:26:23.828Z,7.27
2023-04-25T00:27:23.806Z,7.27
2023-04-25T00:28:23.877Z,7.27
2023-04-25T00:29:23.812Z,7.24
2023-04-25T00:30:23.794Z,7.24
2023-04-25T00:31:23.879Z,7.23
2023-04-25T00:32:23.869Z,7.24
2023-04-25T00:33:23.769Z,7.22
2023-04-25T00:34:23.789Z,7.19
2023-04-25T00:35:23.813Z,7.19
2023-04-25T00:36:23.716Z,7.17
2023-04-25T00:37:23.713Z,7.15
2023-04-25T00:38:23.677Z,7.19
2023-04-25T00:39:23.720Z,7.17
2023-04-25T00:40:23.690Z,7.19
2023-04-25T00:41:23.648Z,7.16
2023-04-25T00:42:23.637Z,7.16
2023-04-25T00:43:23.650Z,7.17
2023-04-25T00:44:23.643Z,7.17
2023-04-25T00:45:23.640Z,7.17
2023-04-25T00:46:23.621Z,7.13
2023-04-25T00:47:23.696Z,7.13
2023-04-25T00:48:23.587Z,7.13
2023-04-25T00:49:23.574Z,7.12
2023-04-25T00:50:23.554Z,7.12
2023-04-25T00:51:23.586Z,7.13
2023-04-25T00:52:23.574Z,7.15
2023-04-25T00:53:23.531Z,7.12
2023-04-25T00:54:23.526Z,7.09
2023-04-25T00:55:23.477Z,7.12
2023-04-25T00:56:23.466Z,7.12
2023-04-25T00:57:23.465Z,7.13
2023-04-25T00:58:23.516Z,7.09
2023-04-25T00:59:23.453Z,7.13
2023-04-25T01:00:23.425Z,7.12
2023-04-25T01:01:23.636Z,7.12
2023-04-25T01:02:23.511Z,7.12
2023-04-25T01:03:23.843Z,7.09
2023-04-25T01:04:23.596Z,7.09
2023-04-25T01:05:23.400Z,7.12
2023-04-25T01:06:23.388Z,7.09
2023-04-25T01:07:23.388Z,7.13
2023-04-25T01:08:23.362Z,7.15
2023-04-25T01:09:23.341Z,7.13
2023-04-25T01:10:23.341Z,7.12
2023-04-25T01:11:23.457Z,7.13
2023-04-25T01:12:23.304Z,7.09
2023-04-25T01:13:23.372Z,7.13
2023-04-25T01:14:23.318Z,7.09
2023-04-25T01:15:23.328Z,7.15
2023-04-25T01:16:23.303Z,7.09
2023-04-25T01:17:23.296Z,7.12
2023-04-25T01:18:23.242Z,7.12
2023-04-25T01:19:23.294Z,7.08
2023-04-25T01:20:23.282Z,7.09
2023-04-25T01:21:23.278Z,7.09
2023-04-25T01:22:23.218Z,7.08
2023-04-25T01:23:23.217Z,7.09
2023-04-25T01:24:23.234Z,7.09
2023-04-25T01:25:23.201Z,7.05
2023-04-25T01:26:23.161Z,7.09
2023-04-25T01:27:23.246Z,7.08
2023-04-25T01:28:23.139Z,7.05
2023-04-25T01:29:23.159Z,7.05
2023-04-25T01:30:23.215Z,7.05
2023-04-25T01:31:23.773Z,7.05
2023-04-25T01:32:23.249Z,7.05
2023-04-25T01:33:23.190Z,7.08
2023-04-25T01:34:23.068Z,7.07
2023-04-25T01:35:23.096Z,7.08
2023-04-25T01:36:23.159Z,7.08
2023-04-25T01:37:23.072Z,7.08
2023-04-25T01:38:23.073Z,7.08
2023-04-25T01:39:23.072Z,7.07
2023-04-25T01:40:23.033Z,7.09
2023-04-25T01:41:24.206Z,7.08
2023-04-25T01:42:23.093Z,7.09
2023-04-25T01:43:23.037Z,7.09
2023-04-25T01:44:22.965Z,7.08
2023-04-25T01:45:23.050Z,7.08
2023-04-25T01:46:22.971Z,7.08
2023-04-25T01:47:22.949Z,7.09
2023-04-25T01:48:22.933Z,7.09
2023-04-25T01:49:22.897Z,7.12
2023-04-25T01:50:22.927Z,7.12
2023-04-25T01:51:23.006Z,7.12
2023-04-25T01:52:22.939Z,7.12
2023-04-25T01:53:22.855Z,7.13
2023-04-25T01:54:22.862Z,7.16
2023-04-25T01:55:22.872Z,7.19
2023-04-25T01:56:22.851Z,7.16
2023-04-25T01:57:22.914Z,7.16
2023-04-25T01:58:22.810Z,7.17
2023-04-25T01:59:22.814Z,7.19
2023-04-25T02:00:22.801Z,7.19
2023-04-25T02:01:22.809Z,7.20
2023-04-25T02:02:22.843Z,7.22
2023-04-25T02:03:22.875Z,7.22
2023-04-25T02:04:22.931Z,7.23
2023-04-25T02:05:22.754Z,7.23
2023-04-25T02:06:22.744Z,7.23
2023-04-25T02:07:22.722Z,7.23
2023-04-25T02:08:22.694Z,7.26
2023-04-25T02:09:22.687Z,7.23
2023-04-25T02:10:22.683Z,7.24
2023-04-25T02:11:22.678Z,7.24
2023-04-25T02:12:22.648Z,7.23
2023-04-25T02:13:22.686Z,7.23
2023-04-25T02:14:22.622Z,7.24
2023-04-25T02:15:22.620Z,7.23
2023-04-25T02:16:22.651Z,7.22
2023-04-25T02:17:22.594Z,7.24
2023-04-25T02:18:22.641Z,7.22
2023-04-25T02:19:22.591Z,7.24
2023-04-25T02:20:22.577Z,7.20
2023-04-25T02:21:22.593Z,7.22
2023-04-25T02:22:22.557Z,7.24
2023-04-25T02:23:22.586Z,7.26
2023-04-25T02:24:22.508Z,7.24
2023-04-25T02:25:22.543Z,7.26
2023-04-25T02:26:22.619Z,7.26
2023-04-25T02:27:22.521Z,7.24
2023-04-25T02:28:22.526Z,7.26
2023-04-25T02:29:22.463Z,7.29
2023-04-25T02:30:22.543Z,7.26
2023-04-25T02:31:22.509Z,7.24
2023-04-25T02:32:22.539Z,7.29
2023-04-25T02:33:22.435Z,7.31
2023-04-25T02:34:22.427Z,7.27
2023-04-25T02:35:22.428Z,7.27
2023-04-25T02:36:22.379Z,7.29
2023-04-25T02:37:22.800Z,7.29
2023-04-25T02:38:22.396Z,7.27
2023-04-25T02:39:22.374Z,7.29
2023-04-25T02:40:22.370Z,7.31
2023-04-25T02:41:22.421Z,7.27
2023-04-25T02:42:22.353Z,7.27
2023-04-25T02:43:22.428Z,7.26
2023-04-25T02:44:22.345Z,7.24
2023-04-25T02:45:22.505Z,7.26
2023-04-25T02:46:32.281Z,7.23
2023-04-25T02:47:23.493Z,7.24
2023-04-25T02:48:22.314Z,7.23
2023-04-25T02:49:22.248Z,7.23
2023-04-25T02:50:22.280Z,7.24
2023-04-25T02:51:22.292Z,7.22
2023-04-25T02:52:22.248Z,7.23
2023-04-25T02:53:22.247Z,7.26
2023-04-25T02:54:22.198Z,7.24
2023-04-25T02:55:22.190Z,7.23
2023-04-25T02:56:22.184Z,7.26
2023-04-25T02:57:22.177Z,7.27
2023-04-25T02:58:22.173Z,7.27
2023-04-25T02:59:22.171Z,7.27
2023-04-25T03:00:22.145Z,7.27
2023-04-25T03:01:22.278Z,7.24
2023-04-25T03:02:22.142Z,7.24
2023-04-25T03:03:22.291Z,7.24
2023-04-25T03:04:22.178Z,7.23
2023-04-25T03:05:22.138Z,7.24
2023-04-25T03:06:22.070Z,7.24
2023-04-25T03:07:22.070Z,7.22
2023-04-25T03:08:22.141Z,7.19
2023-04-25T03:09:22.050Z,7.20
2023-04-25T03:10:22.047Z,7.17
2023-04-25T03:11:22.014Z,7.19
2023-04-25T03:12:22.734Z,7.19
2023-04-25T03:13:22.113Z,7.19
2023-04-25T03:14:22.073Z,7.19
2023-04-25T03:15:22.003Z,7.20
2023-04-25T03:16:22.003Z,7.17
2023-04-25T03:17:22.038Z,7.19
2023-04-25T03:18:21.934Z,7.16
2023-04-25T03:19:21.930Z,7.13
2023-04-25T03:20:21.937Z,7.15
2023-04-25T03:21:21.913Z,7.12
2023-04-25T03:22:21.905Z,7.13
2023-04-25T03:23:21.910Z,7.13
2023-04-25T03:24:21.883Z,7.15
2023-04-25T03:25:21.907Z,7.12
2023-04-25T03:26:21.857Z,7.15
2023-04-25T03:27:21.853Z,7.13
2023-04-25T03:28:21.880Z,7.13
2023-04-25T03:29:21.826Z,7.13
2023-04-25T03:30:21.845Z,7.13
2023-04-25T03:31:21.827Z,7.15
2023-04-25T03:32:22.012Z,7.15
2023-04-25T03:33:21.750Z,7.13
2023-04-25T03:34:21.807Z,7.13
2023-04-25T03:35:21.811Z,7.16
2023-04-25T03:36:21.820Z,7.15
2023-04-25T03:37:21.732Z,7.13
2023-04-25T03:38:21.748Z,7.13
2023-04-25T03:39:21.721Z,7.13
2023-04-25T03:40:21.708Z,7.13
2023-04-25T03:41:21.698Z,7.13
2023-04-25T03:42:21.662Z,7.12
2023-04-25T03:43:21.667Z,7.13
2023-04-25T03:44:21.675Z,7.12
2023-04-25T03:45:21.684Z,7.12
2023-04-25T03:46:21.726Z,7.08
2023-04-25T03:47:21.671Z,7.12
2023-04-25T03:48:21.586Z,7.13
2023-04-25T03:49:21.604Z,7.13
2023-04-25T03:50:21.641Z,7.13
2023-04-25T03:51:21.608Z,7.12
2023-04-25T03:52:21.623Z,7.12
2023-04-25T03:53:21.541Z,7.12
2023-04-25T03:54:22.405Z,7.07
2023-04-25T03:55:21.609Z,7.08
2023-04-25T03:56:21.646Z,7.07
2023-04-25T03:57:21.532Z,7.07
2023-04-25T03:58:21.482Z,7.07
2023-04-25T03:59:21.614Z,7.08
2023-04-25T04:00:21.582Z,7.05
2023-04-25T04:01:21.489Z,7.05
2023-04-25T04:02:21.600Z,7.07
2023-04-25T04:03:21.878Z,7.07
2023-04-25T04:04:21.686Z,7.04
2023-04-25T04:05:21.647Z,7.04
2023-04-25T04:06:21.441Z,7.04
2023-04-25T04:07:21.437Z,7.02
2023-04-25T04:08:21.374Z,6.99
2023-04-25T04:09:21.412Z,6.99
2023-04-25T04:10:21.356Z,6.98
2023-04-25T04:11:21.419Z,6.99
2023-04-25T04:12:21.497Z,6.99
2023-04-25T04:13:21.380Z,6.98
2023-04-25T04:14:21.381Z,6.99
2023-04-25T04:15:21.417Z,6.95
2023-04-25T04:16:21.408Z,6.99
2023-04-25T04:17:21.304Z,6.94
2023-04-25T04:18:21.280Z,6.98
2023-04-25T04:19:21.339Z,6.97
2023-04-25T04:20:21.314Z,6.95
2023-04-25T04:21:21.292Z,6.95
2023-04-25T04:22:21.321Z,6.91
2023-04-25T04:23:21.303Z,6.97
2023-04-25T04:24:21.253Z,6.95
2023-04-25T04:25:21.251Z,6.95
2023-04-25T04:26:21.262Z,6.97
2023-04-25T04:27:21.205Z,6.95
2023-04-25T04:28:21.221Z,6.95
2023-04-25T04:29:21.194Z,6.95
2023-04-25T04:30:21.182Z,6.95
2023-04-25T04:31:21.244Z,6.98
2023-04-25T04:32:21.201Z,6.95
2023-04-25T04:33:21.137Z,6.95
2023-04-25T04:34:21.114Z,6.94
2023-04-25T04:35:21.215Z,6.95
2023-04-25T04:36:21.225Z,6.94
2023-04-25T04:37:21.168Z,6.95
2023-04-25T04:38:21.091Z,6.94
2023-04-25T04:39:21.063Z,6.94
2023-04-25T04:40:21.110Z,6.95
2023-04-25T04:41:21.100Z,6.95
2023-04-25T04:42:21.113Z,6.95
2023-04-25T04:43:21.022Z,6.97
2023-04-25T04:44:21.096Z,6.95
2023-04-25T04:45:21.024Z,6.98
2023-04-25T04:46:21.001Z,6.95
2023-04-25T04:47:21.018Z,6.95
2023-04-25T04:48:20.961Z,6.95
2023-04-25T04:49:20.938Z,6.94
2023-04-25T04:50:21.002Z,6.94
2023-04-25T04:51:20.940Z,6.94
2023-04-25T04:52:20.945Z,6.94
2023-04-25T04:53:20.925Z,6.91
2023-04-25T04:54:20.993Z,6.87
2023-04-25T04:55:20.938Z,6.87
2023-04-25T04:56:20.886Z,6.86
2023-04-25T04:57:20.914Z,6.87
2023-04-25T04:58:20.826Z,6.87
2023-04-25T04:59:20.838Z,6.91
2023-04-25T05:00:20.901Z,6.91
2023-04-25T05:01:20.879Z,6.90
2023-04-25T05:02:20.806Z,6.89
2023-04-25T05:03:20.997Z,6.91
2023-04-25T05:04:21.034Z,6.91
2023-04-25T05:05:20.839Z,6.95
2023-04-25T05:06:20.771Z,6.95
2023-04-25T05:07:20.783Z,6.97
2023-04-25T05:08:20.745Z,6.97
2023-04-25T05:09:20.781Z,6.99
2023-04-25T05:10:20.723Z,6.99
2023-04-25T05:11:20.826Z,7.01
2023-04-25T05:12:20.704Z,7.02
2023-04-25T05:13:20.801Z,7.02
2023-04-25T05:14:20.829Z,7.04
2023-04-25T05:15:20.706Z,7.04
2023-04-25T05:16:20.772Z,7.05
2023-04-25T05:17:20.636Z,7.08
2023-04-25T05:18:23.161Z,7.08
2023-04-25T05:19:20.913Z,7.07
2023-04-25T05:20:20.858Z,7.04
2023-04-25T05:21:20.586Z,7.05
2023-04-25T05:22:20.635Z,7.09
2023-04-25T05:23:20.617Z,7.13
2023-04-25T05:24:20.583Z,7.16
2023-04-25T05:25:20.621Z,7.15
2023-04-25T05:26:20.678Z,7.17
2023-04-25T05:27:20.635Z,7.19
2023-04-25T05:28:20.531Z,7.22
2023-04-25T05:29:20.601Z,7.22
2023-04-25T05:30:20.520Z,7.20
2023-04-25T05:31:20.570Z,7.22
2023-04-25T05:32:20.757Z,7.22
2023-04-25T05:33:20.611Z,7.26
2023-04-25T05:34:21.455Z,7.31
2023-04-25T05:35:20.714Z,7.31
2023-04-25T05:36:20.616Z,7.37
2023-04-25T05:37:20.420Z,7.40
2023-04-25T05:38:20.452Z,7.41
2023-04-25T05:39:20.397Z,7.45
2023-04-25T05:40:20.389Z,7.49
2023-04-25T05:41:20.375Z,7.53
2023-04-25T05:42:20.464Z,7.56
2023-04-25T05:43:20.379Z,7.58
2023-04-25T05:44:20.342Z,7.59
2023-04-25T05:45:20.327Z,7.58
2023-04-25T05:46:20.323Z,7.56
2023-04-25T05:47:20.308Z,7.53
2023-04-25T05:48:20.322Z,7.49
2023-04-25T05:49:20.280Z,7.53
2023-04-25T05:50:20.291Z,7.55
2023-04-25T05:51:20.297Z,7.55
2023-04-25T05:52:20.254Z,7.56
2023-04-25T05:53:20.251Z,7.56
2023-04-25T05:54:20.225Z,7.60
2023-04-25T05:55:20.399Z,7.59
2023-04-25T05:56:20.354Z,7.60
2023-04-25T05:57:20.219Z,7.53
2023-04-25T05:58:20.195Z,7.53
2023-04-25T05:59:20.335Z,7.55
2023-04-25T06:00:20.199Z,7.58
2023-04-25T06:01:20.164Z,7.60
2023-04-25T06:02:20.334Z,7.63
2023-04-25T06:03:20.926Z,7.71
2023-04-25T06:04:20.334Z,7.67
2023-04-25T06:05:20.374Z,7.67
2023-04-25T06:06:20.116Z,7.71
2023-04-25T06:07:20.120Z,7.75
2023-04-25T06:08:20.178Z,7.78
2023-04-25T06:09:20.070Z,7.85
2023-04-25T06:10:20.088Z,7.82
2023-04-25T06:11:20.068Z,7.87
2023-04-25T06:12:20.068Z,7.89
2023-04-25T06:13:20.026Z,7.90
2023-04-25T06:14:20.113Z,7.93
2023-04-25T06:16:20.094Z,7.93
2023-04-25T06:17:20.035Z,7.94
2023-04-25T06:18:20.118Z,7.94
2023-04-25T06:19:19.986Z,7.89
2023-04-25T06:20:20.202Z,7.92
2023-04-25T06:21:19.945Z,7.94
2023-04-25T06:22:19.940Z,8.00
2023-04-25T06:23:19.987Z,8.07
2023-04-25T06:24:19.912Z,8.08
2023-04-25T06:25:20.061Z,8.11
2023-04-25T06:26:19.902Z,8.12
2023-04-25T06:27:19.881Z,8.14
2023-04-25T06:28:19.939Z,8.14
2023-04-25T06:29:19.875Z,8.17
2023-04-25T06:30:19.864Z,8.17
2023-04-25T06:31:19.875Z,8.11
2023-04-25T06:32:19.875Z,8.07
2023-04-25T06:33:19.952Z,8.07
2023-04-25T06:34:19.905Z,8.08
2023-04-25T06:35:19.826Z,8.12
2023-04-25T06:36:19.904Z,8.17
2023-04-25T06:37:19.767Z,8.22
2023-04-25T06:38:19.844Z,8.26
2023-04-25T06:39:19.905Z,8.26
2023-04-25T06:40:19.797Z,8.26
2023-04-25T06:41:19.785Z,8.26
2023-04-25T06:42:19.872Z,8.22
2023-04-25T06:43:19.728Z,8.22
2023-04-25T06:44:19.695Z,8.25
2023-04-25T06:45:19.809Z,8.26
2023-04-25T06:46:19.779Z,8.28
2023-04-25T06:47:19.811Z,8.30
2023-04-25T06:48:19.790Z,8.35
2023-04-25T06:49:19.649Z,8.32
2023-04-25T06:50:19.676Z,8.39
2023-04-25T06:51:20.249Z,8.42
2023-04-25T06:52:19.679Z,8.47
2023-04-25T06:53:19.692Z,8.51
2023-04-25T06:54:19.618Z,8.53
2023-04-25T06:55:19.741Z,8.62
2023-04-25T06:56:19.655Z,8.71
2023-04-25T06:57:19.636Z,8.69
2023-04-25T06:58:19.651Z,8.76
2023-04-25T06:59:19.550Z,8.78
2023-04-25T07:00:19.607Z,8.79
2023-04-25T07:01:19.570Z,8.86
2023-04-25T07:02:19.733Z,8.87
2023-04-25T07:03:19.657Z,8.79
2023-04-25T07:04:19.805Z,8.75
2023-04-25T07:05:19.559Z,8.71
2023-04-25T07:06:19.497Z,8.75
2023-04-25T07:07:19.514Z,8.71
2023-04-25T07:08:19.439Z,8.76
2023-04-25T07:09:19.419Z,8.83
2023-04-25T07:10:19.398Z,8.86
2023-04-25T07:11:19.576Z,8.83
2023-04-25T07:12:19.391Z,8.69
2023-04-25T07:13:19.393Z,8.66
2023-04-25T07:14:19.417Z,8.63
2023-04-25T07:15:19.414Z,8.63
2023-04-25T07:16:19.418Z,8.73
2023-04-25T07:17:19.338Z,8.76
2023-04-25T07:18:19.342Z,8.76
2023-04-25T07:19:19.305Z,8.73
2023-04-25T07:20:19.334Z,8.76
2023-04-25T07:21:19.276Z,8.72
2023-04-25T07:22:19.345Z,8.75
2023-04-25T07:23:19.254Z,8.83
2023-04-25T07:24:19.398Z,8.86
2023-04-25T07:25:19.315Z,8.72
2023-04-25T07:26:19.259Z,8.72
2023-04-25T07:27:19.217Z,8.71
2023-04-25T07:28:19.742Z,8.71
2023-04-25T07:29:19.196Z,8.63
2023-04-25T07:30:19.249Z,8.55
2023-04-25T07:31:19.178Z,8.54
2023-04-25T07:32:19.295Z,8.53
2023-04-25T07:33:19.158Z,8.57
2023-04-25T07:34:19.198Z,8.68
2023-04-25T07:35:19.160Z,8.78
2023-04-25T07:36:19.129Z,8.84
2023-04-25T07:37:19.237Z,8.88
2023-04-25T07:38:19.154Z,8.94
2023-04-25T07:39:19.209Z,9.04
2023-04-25T07:40:19.080Z,9.10
2023-04-25T07:41:19.067Z,9.02
2023-04-25T07:42:19.203Z,9.04
2023-04-25T07:43:19.051Z,9.06
2023-04-25T07:44:19.055Z,9.05
2023-04-25T07:45:19.033Z,8.97
2023-04-25T07:46:19.219Z,9.02
2023-04-25T07:47:19.062Z,8.94
2023-04-25T07:48:19.003Z,8.96
2023-04-25T07:49:18.990Z,8.97
2023-04-25T07:50:19.169Z,9.04
2023-04-25T07:51:18.963Z,9.01
2023-04-25T07:52:18.975Z,8.96
2023-04-25T07:53:18.978Z,8.93
2023-04-25T07:54:19.020Z,8.90
2023-04-25T07:55:18.914Z,8.90
2023-04-25T07:56:19.102Z,8.88
2023-04-25T07:57:18.882Z,8.87
2023-04-25T07:58:18.945Z,8.90
2023-04-25T07:59:18.926Z,8.94
2023-04-25T08:00:18.864Z,8.93
2023-04-25T08:01:18.836Z,8.88
2023-04-25T08:02:18.870Z,8.84
2023-04-25T08:03:18.989Z,8.84
2023-04-25T08:04:19.076Z,8.96
2023-04-25T08:05:22.163Z,9.12
2023-04-25T08:06:18.955Z,9.20
2023-04-25T08:07:18.774Z,9.25
2023-04-25T08:08:18.807Z,9.38
2023-04-25T08:09:18.759Z,9.49
2023-04-25T08:10:18.771Z,9.53
2023-04-25T08:11:18.821Z,9.56
2023-04-25T08:12:18.740Z,9.60
2023-04-25T08:13:18.729Z,9.61
2023-04-25T08:14:18.760Z,9.64
2023-04-25T08:15:18.698Z,9.71
2023-04-25T08:16:18.736Z,9.78
2023-04-25T08:17:18.684Z,9.81
2023-04-25T08:18:18.772Z,9.83
2023-04-25T08:19:18.667Z,9.73
2023-04-25T08:20:18.663Z,9.78
2023-04-25T08:21:18.607Z,9.71
2023-04-25T08:22:18.620Z,9.63
2023-04-25T08:23:18.603Z,9.57
2023-04-25T08:24:18.640Z,9.50
2023-04-25T08:25:18.582Z,9.42
2023-04-25T08:26:18.580Z,9.48
2023-04-25T08:27:18.543Z,9.56
2023-04-25T08:28:18.642Z,9.56
2023-04-25T08:29:18.645Z,9.50
2023-04-25T08:30:18.578Z,9.49
2023-04-25T08:31:18.756Z,9.48
2023-04-25T08:32:18.564Z,9.43
2023-04-25T08:33:18.535Z,9.46
2023-04-25T08:34:18.529Z,9.53
2023-04-25T08:35:18.511Z,9.53
2023-04-25T08:36:31.453Z,9.53
2023-04-25T08:37:19.459Z,9.53
2023-04-25T08:38:18.437Z,9.57
2023-04-25T08:39:18.519Z,9.63
2023-04-25T08:40:18.456Z,9.67
2023-04-25T08:41:18.471Z,9.70
2023-04-25T08:42:18.460Z,9.75
2023-04-25T08:43:18.397Z,9.82
2023-04-25T08:44:18.418Z,9.94
2023-04-25T08:45:18.381Z,10.03
2023-04-25T08:46:18.453Z,10.06
2023-04-25T08:47:18.365Z,9.99
2023-04-25T08:48:18.358Z,9.93
2023-04-25T08:49:18.396Z,9.79
2023-04-25T08:50:18.367Z,9.66
2023-04-25T08:51:19.813Z,9.58
2023-04-25T08:52:18.321Z,9.56
2023-04-25T08:53:18.294Z,9.48
2023-04-25T08:55:18.347Z,9.50
2023-04-25T08:56:18.250Z,9.60
2023-04-25T08:57:18.314Z,9.70
2023-04-25T08:58:18.277Z,9.83
2023-04-25T08:59:18.306Z,9.93
2023-04-25T09:00:18.288Z,9.99
2023-04-25T09:01:18.253Z,10.12
2023-04-25T09:02:18.237Z,10.25
2023-04-25T09:03:18.484Z,10.39
2023-04-25T09:04:18.224Z,10.39
2023-04-25T09:05:20.179Z,10.36
2023-04-25T09:06:18.235Z,10.37
2023-04-25T09:07:18.210Z,10.56
2023-04-25T09:08:18.458Z,10.63
2023-04-25T09:09:18.126Z,10.71
2023-04-25T09:10:18.400Z,10.62
2023-04-25T09:11:19.588Z,10.55
2023-04-25T09:12:18.173Z,10.47
2023-04-25T09:13:18.097Z,10.51
2023-04-25T09:14:18.077Z,10.46
2023-04-25T09:15:20.927Z,10.34
2023-04-25T09:16:18.075Z,10.12
2023-04-25T09:17:18.065Z,10.07
2023-04-25T09:18:18.004Z,10.14
2023-04-25T09:19:18.020Z,10.21
2023-04-25T09:20:18.062Z,10.32
2023-04-25T09:21:18.039Z,10.40
2023-04-25T09:22:18.065Z,10.30
2023-04-25T09:23:17.965Z,10.26
2023-04-25T09:24:17.998Z,10.30
2023-04-25T09:25:17.964Z,10.33
2023-04-25T09:26:17.956Z,10.30
2023-04-25T09:27:18.067Z,10.24
2023-04-25T09:28:17.919Z,10.19
2023-04-25T09:29:17.922Z,10.15
2023-04-25T09:30:17.949Z,10.12
2023-04-25T09:31:17.900Z,10.09
2023-04-25T09:32:17.992Z,10.06
2023-04-25T09:33:18.046Z,10.07
2023-04-25T09:34:17.856Z,10.12
2023-04-25T09:35:17.851Z,9.96
2023-04-25T09:36:17.831Z,9.97
2023-04-25T09:37:17.923Z,9.99
2023-04-25T09:38:17.795Z,9.89
2023-04-25T09:39:17.825Z,9.93
2023-04-25T09:40:17.930Z,9.85
2023-04-25T09:41:17.957Z,9.73
2023-04-25T09:42:17.871Z,9.70
2023-04-25T09:43:18.042Z,9.75
2023-04-25T09:44:17.752Z,9.76
2023-04-25T09:45:17.751Z,9.76
2023-04-25T09:46:17.845Z,9.76
2023-04-25T09:47:17.844Z,9.81
2023-04-25T09:48:17.910Z,9.76
2023-04-25T09:49:17.891Z,9.79
2023-04-25T09:50:17.757Z,9.93
2023-04-25T09:51:17.764Z,9.99
2023-04-25T09:52:17.723Z,10.21
2023-04-25T09:53:17.749Z,10.46
2023-04-25T09:54:17.778Z,10.76
2023-04-25T09:55:17.772Z,10.91
2023-04-25T09:56:17.606Z,10.88
2023-04-25T09:57:17.710Z,10.77
2023-04-25T09:58:17.699Z,10.63
2023-04-25T09:59:17.888Z,10.51
2023-04-25T10:00:17.831Z,10.33
2023-04-25T10:01:17.602Z,10.17
2023-04-25T10:02:17.691Z,10.06
2023-04-25T10:03:17.853Z,9.96
2023-04-25T10:04:17.678Z,9.85
2023-04-25T10:05:17.753Z,9.81
2023-04-25T10:06:17.599Z,9.82
2023-04-25T10:07:17.565Z,9.79
2023-04-25T10:08:17.542Z,9.85
2023-04-25T10:09:17.527Z,9.89
2023-04-25T10:10:17.572Z,9.99
2023-04-25T10:11:17.455Z,10.03
2023-04-25T10:12:17.491Z,10.01
2023-04-25T10:13:17.432Z,10.07
2023-04-25T10:14:17.529Z,10.03
2023-04-25T10:15:17.399Z,9.97
2023-04-25T10:16:17.497Z,9.93
2023-04-25T10:17:17.531Z,9.99
2023-04-25T10:18:17.346Z,9.94
2023-04-25T10:19:17.477Z,9.93
2023-04-25T10:20:17.385Z,10.01
2023-04-25T10:21:17.428Z,10.10
2023-04-25T10:22:17.508Z,10.22
2023-04-25T10:23:17.350Z,10.36
2023-04-25T10:24:17.406Z,10.40
2023-04-25T10:25:17.296Z,10.47
2023-04-25T10:26:17.291Z,10.52
2023-04-25T10:27:17.270Z,10.58
2023-04-25T10:28:17.380Z,10.56
2023-04-25T10:29:17.406Z,10.44
2023-04-25T10:30:17.472Z,10.42
2023-04-25T10:31:17.334Z,10.42
2023-04-25T10:32:17.429Z,10.39
2023-04-25T10:33:17.440Z,10.34
2023-04-25T10:34:17.201Z,10.34
2023-04-25T10:35:17.409Z,10.30
2023-04-25T10:36:17.257Z,10.40
2023-04-25T10:37:17.288Z,10.43
2023-04-25T10:38:17.140Z,10.39
2023-04-25T10:39:17.281Z,10.43
2023-04-25T10:40:17.285Z,10.44
2023-04-25T10:41:17.105Z,10.56
2023-04-25T10:42:17.162Z,10.74
2023-04-25T10:43:17.269Z,10.88
2023-04-25T10:44:17.098Z,10.91
2023-04-25T10:45:17.038Z,10.83
2023-04-25T10:46:17.093Z,10.78
2023-04-25T10:47:17.133Z,10.86
2023-04-25T10:48:17.119Z,10.96
2023-04-25T10:49:17.296Z,11.09
2023-04-25T10:50:17.236Z,11.19
2023-04-25T10:51:17.342Z,11.21
2023-04-25T10:52:17.122Z,11.32
2023-04-25T10:53:17.056Z,11.43
2023-04-25T10:54:16.993Z,11.50
2023-04-25T10:55:17.007Z,11.39
2023-04-25T10:56:17.011Z,11.27
2023-04-25T10:57:16.952Z,11.25
2023-04-25T10:58:16.948Z,11.06
2023-04-25T10:59:16.908Z,11.02
2023-04-25T11:00:17.051Z,11.10
2023-04-25T11:01:16.925Z,11.13
2023-04-25T11:02:16.941Z,10.92
2023-04-25T11:03:17.070Z,10.83
2023-04-25T11:04:17.142Z,10.81
2023-04-25T11:05:17.718Z,10.86
2023-04-25T11:06:16.821Z,10.76
2023-04-25T11:07:16.843Z,10.84
2023-04-25T11:08:17.708Z,10.83
2023-04-25T11:09:16.827Z,10.70
2023-04-25T11:10:16.829Z,10.65
2023-04-25T11:11:16.842Z,10.58
2023-04-25T11:12:16.840Z,10.53
2023-04-25T11:13:16.770Z,10.37
2023-04-25T11:14:16.766Z,10.33
2023-04-25T11:15:16.845Z,10.37
2023-04-25T11:16:26.862Z,10.53
2023-04-25T11:17:17.846Z,10.65
2023-04-25T11:18:16.880Z,10.62
2023-04-25T11:19:16.738Z,10.68
2023-04-25T11:20:16.667Z,10.94
2023-04-25T11:21:16.698Z,11.16
2023-04-25T11:22:16.643Z,11.29
2023-04-25T11:23:16.664Z,11.41
2023-04-25T11:24:16.648Z,11.52
2023-04-25T11:25:16.725Z,11.59
2023-04-25T11:26:16.628Z,11.72
2023-04-25T11:27:16.594Z,11.97
2023-04-25T11:28:16.590Z,12.06
2023-04-25T11:29:16.605Z,12.01
2023-04-25T11:30:16.626Z,12.01
2023-04-25T11:31:16.625Z,11.99
2023-04-25T11:32:16.790Z,11.97
2023-04-25T11:33:16.600Z,12.15
2023-04-25T11:34:16.516Z,12.27
2023-04-25T11:35:16.556Z,12.39
2023-04-25T11:36:16.520Z,12.42
2023-04-25T11:37:16.511Z,12.33
2023-04-25T11:38:16.486Z,12.04
2023-04-25T11:39:16.581Z,11.74
2023-04-25T11:40:16.508Z,11.61
2023-04-25T11:41:16.485Z,11.47
2023-04-25T11:42:16.458Z,11.17
2023-04-25T11:43:16.697Z,10.84
2023-04-25T11:44:16.562Z,10.65
2023-04-25T11:45:16.563Z,10.47
2023-04-25T11:46:16.429Z,10.37
2023-04-25T11:47:16.418Z,10.09
2023-04-25T11:48:16.521Z,9.56
2023-04-25T11:49:16.927Z,9.04
2023-04-25T11:50:16.500Z,8.51
2023-04-25T11:51:16.389Z,8.04
2023-04-25T11:52:16.316Z,7.77
2023-04-25T11:53:16.620Z,7.59
2023-04-25T11:54:16.433Z,7.59
2023-04-25T11:55:16.321Z,7.59
2023-04-25T11:56:16.307Z,7.59
2023-04-25T11:57:16.338Z,7.66
2023-04-25T11:58:16.305Z,7.71
2023-04-25T11:59:16.297Z,7.72
2023-04-25T12:00:18.670Z,7.79
2023-04-25T12:01:16.215Z,7.87
2023-04-25T12:02:16.303Z,7.90
2023-04-25T12:03:16.434Z,7.94
2023-04-25T12:04:16.362Z,7.96
2023-04-25T12:05:31.256Z,7.97
2023-04-25T12:06:17.368Z,7.93
2023-04-25T12:07:16.226Z,7.79
2023-04-25T12:08:17.000Z,7.71
2023-04-25T12:09:16.148Z,7.66
2023-04-25T12:10:16.158Z,7.69
2023-04-25T12:11:16.138Z,7.72
2023-04-25T12:12:16.128Z,7.67
2023-04-25T12:13:16.110Z,7.67
2023-04-25T12:14:16.127Z,7.63
2023-04-25T12:15:16.131Z,7.58
2023-04-25T12:16:16.094Z,7.55
2023-04-25T12:17:16.163Z,7.55
2023-04-25T12:18:16.061Z,7.50
2023-04-25T12:19:16.036Z,7.52
2023-04-25T12:20:16.000Z,7.50
2023-04-25T12:21:16.162Z,7.50
2023-04-25T12:22:16.109Z,7.50
2023-04-25T12:23:16.011Z,7.55
2023-04-25T12:24:16.028Z,7.62
2023-04-25T12:25:15.984Z,7.71
2023-04-25T12:26:16.068Z,7.74
2023-04-25T12:27:15.961Z,7.79
2023-04-25T12:28:15.999Z,7.89
2023-04-25T12:29:15.941Z,7.87
2023-04-25T12:30:15.923Z,7.90
2023-04-25T12:31:16.027Z,7.93
2023-04-25T12:32:15.890Z,8.03
2023-04-25T12:33:15.983Z,8.14
2023-04-25T12:34:15.878Z,8.26
2023-04-25T12:35:15.884Z,8.36
2023-04-25T12:36:15.852Z,8.45
2023-04-25T12:37:15.890Z,8.55
2023-04-25T12:38:15.979Z,8.75
2023-04-25T12:39:15.918Z,8.86
2023-04-25T12:40:15.827Z,8.91
2023-04-25T12:41:15.825Z,9.01
2023-04-25T12:42:15.797Z,9.01
2023-04-25T12:43:15.908Z,9.06
2023-04-25T12:44:15.816Z,9.10
2023-04-25T12:45:15.808Z,9.15
2023-04-25T12:46:15.835Z,9.05
2023-04-25T12:47:15.817Z,9.09
2023-04-25T12:48:15.876Z,9.13
2023-04-25T12:49:19.055Z,9.27
2023-04-25T12:50:15.795Z,9.27
2023-04-25T12:51:15.811Z,9.39
2023-04-25T12:52:15.802Z,9.49
2023-04-25T12:53:15.830Z,9.63
2023-04-25T12:54:15.774Z,9.81
2023-04-25T12:55:15.791Z,9.85
2023-04-25T12:56:15.630Z,9.89
2023-04-25T12:57:15.639Z,9.82
2023-04-25T12:58:15.706Z,9.73
2023-04-25T12:59:15.777Z,9.71
2023-04-25T13:00:15.686Z,9.78
2023-04-25T13:01:15.700Z,9.83
2023-04-25T13:02:15.683Z,9.97
2023-04-25T13:03:15.654Z,9.93
2023-04-25T13:04:15.758Z,10.03
2023-04-25T13:05:15.701Z,10.19
2023-04-25T13:06:15.672Z,10.26
2023-04-25T13:07:15.608Z,10.15
2023-04-25T13:08:15.528Z,10.19
2023-04-25T13:09:15.488Z,10.22
2023-04-25T13:10:15.509Z,10.26
2023-04-25T13:11:15.549Z,10.33
2023-04-25T13:12:15.462Z,10.40
2023-04-25T13:13:15.442Z,10.47
2023-04-25T13:14:15.448Z,10.62
2023-04-25T13:15:15.467Z,10.78